Time;durP1;ratioP1;P1;durP2;ratioP2;P2;SDS_P1;SDS_P2;PMS_P1;PMS_P2;Temp;Humidity;BMP_temperature;BMP_pressure;BME280_temperature;BME280_humidity;BME280_pressure;Samples;Min_cycle;Max_cycle;Signal;HPM_P1;HPM_P2
2022/11/01 00:01:22;;;;;;;17.65;4.10;;;13.80;99.90;;;;;;5093379;28;20020;-64
2022/11/01 00:03:47;;;;;;;19.38;4.43;;;13.90;99.90;;;;;;5093187;28;20510;-64
2022/11/01 00:06:13;;;;;;;16.52;3.65;;;13.90;99.90;;;;;;5091613;28;20016;-64
2022/11/01 00:08:39;;;;;;;22.75;3.97;;;14.00;99.90;;;;;;5093054;28;20514;-64
2022/11/01 00:11:08;;;;;;;21.80;4.20;;;14.00;99.90;;;;;;5093311;28;20028;-64
2022/11/01 00:13:34;;;;;;;25.25;4.10;;;13.90;99.90;;;;;;5092455;28;20032;-64
2022/11/01 00:16:00;;;;;;;20.17;4.10;;;13.90;99.90;;;;;;5092750;28;20089;-64
2022/11/01 00:18:26;;;;;;;24.08;4.50;;;13.90;99.90;;;;;;5092805;28;20028;-65
2022/11/01 00:20:51;;;;;;;20.13;3.65;;;14.00;99.90;;;;;;5092594;28;20107;-64
2022/11/01 00:23:17;;;;;;;18.52;3.78;;;13.90;99.90;;;;;;5092619;28;20110;-64
2022/11/01 00:25:43;;;;;;;21.10;3.80;;;13.70;99.90;;;;;;5092565;28;20024;-64
2022/11/01 00:28:09;;;;;;;16.77;3.90;;;13.60;99.90;;;;;;5092226;28;20031;-64
2022/11/01 00:30:36;;;;;;;25.52;4.05;;;13.40;99.90;;;;;;5092647;28;20479;-64
2022/11/01 00:33:02;;;;;;;20.90;3.80;;;13.30;99.90;;;;;;5091752;28;20073;-64
2022/11/01 00:35:30;;;;;;;21.88;4.13;;;13.30;99.90;;;;;;5092884;28;20016;-64
2022/11/01 00:37:56;;;;;;;21.42;4.82;;;13.10;99.90;;;;;;5092259;28;20024;-64
2022/11/01 00:40:22;;;;;;;15.48;3.60;;;13.10;99.90;;;;;;5092172;28;20035;-63
2022/11/01 00:42:48;;;;;;;19.98;3.92;;;13.00;99.90;;;;;;5092019;28;20028;-64
2022/11/01 00:45:13;;;;;;;15.27;3.55;;;13.10;99.90;;;;;;5092606;28;20063;-64
2022/11/01 00:47:39;;;;;;;17.48;3.80;;;13.20;99.90;;;;;;5092404;28;20027;-64
2022/11/01 00:50:05;;;;;;;22.13;4.38;;;13.20;99.90;;;;;;5092340;28;20039;-64
2022/11/01 00:52:31;;;;;;;18.20;4.60;;;13.10;99.90;;;;;;5092359;28;20020;-64
2022/11/01 00:54:57;;;;;;;22.50;4.10;;;13.10;99.90;;;;;;5092586;28;20035;-64
2022/11/01 00:57:22;;;;;;;16.10;4.05;;;13.20;99.90;;;;;;5092065;28;20076;-64
2022/11/01 00:59:48;;;;;;;23.45;4.15;;;13.20;99.90;;;;;;5092168;28;20494;-64
2022/11/01 01:02:14;;;;;;;17.80;3.40;;;13.20;99.90;;;;;;5092034;28;20027;-64
2022/11/01 01:04:42;;;;;;;17.30;3.25;;;13.30;99.90;;;;;;5091841;28;20062;-64
2022/11/01 01:07:08;;;;;;;12.18;3.25;;;13.20;99.90;;;;;;5092394;28;20020;-64
2022/11/01 01:09:34;;;;;;;21.48;3.95;;;13.10;99.90;;;;;;5091715;28;20044;-63
2022/11/01 01:12:00;;;;;;;14.25;3.25;;;13.00;99.90;;;;;;5091614;28;20028;-64
2022/11/01 01:14:27;;;;;;;20.30;3.92;;;12.80;99.90;;;;;;5092336;28;20023;-64
2022/11/01 01:16:53;;;;;;;16.80;3.83;;;12.70;99.90;;;;;;5090470;28;20039;-64
2022/11/01 01:19:18;;;;;;;13.95;3.28;;;12.90;99.90;;;;;;5091641;28;20040;-64
2022/11/01 01:21:44;;;;;;;18.58;3.78;;;13.00;99.90;;;;;;5092381;28;20112;-64
2022/11/01 01:24:10;;;;;;;18.15;3.88;;;12.80;99.90;;;;;;5091373;28;20028;-64
2022/11/01 01:26:36;;;;;;;11.65;3.08;;;12.50;99.90;;;;;;5092006;28;20118;-64
2022/11/01 01:29:02;;;;;;;16.25;3.97;;;12.60;99.90;;;;;;5091681;28;20028;-63
2022/11/01 01:31:27;;;;;;;19.40;3.85;;;12.60;99.90;;;;;;5091787;28;20081;-64
2022/11/01 01:33:53;;;;;;;21.52;3.95;;;12.50;99.90;;;;;;5091678;28;20387;-64
2022/11/01 01:36:19;;;;;;;19.85;3.55;;;12.30;99.90;;;;;;5091657;28;20469;-64
2022/11/01 01:38:45;;;;;;;19.67;3.53;;;12.30;99.90;;;;;;5091545;28;20162;-64
2022/11/01 01:43:54;;;;;;;;;;;12.20;99.90;;;;;;5092610;28;20428;-63
2022/11/01 01:46:20;;;;;;;21.70;3.40;;;12.20;99.90;;;;;;5090217;28;19904;-64
2022/11/01 01:48:52;;;;;;;20.23;3.83;;;12.00;99.90;;;;;;5091583;28;20028;-64
2022/11/01 01:51:21;;;;;;;17.33;3.58;;;12.20;99.90;;;;;;5091498;28;20027;-64
2022/11/01 01:53:51;;;;;;;25.08;3.97;;;11.80;99.90;;;;;;5091214;28;20103;-64
2022/11/01 01:56:19;;;;;;;13.23;2.95;;;11.70;99.90;;;;;;5091523;28;20076;-64
2022/11/01 01:59:00;;;;;;;23.48;4.22;;;11.70;99.90;;;;;;5091406;28;20063;-64
2022/11/01 02:01:26;;;;;;;19.45;3.67;;;11.80;99.90;;;;;;5091470;28;20043;-64
2022/11/01 02:03:52;;;;;;;14.38;3.03;;;11.80;99.90;;;;;;5091715;28;20031;-64
2022/11/01 02:06:22;;;;;;;20.27;3.58;;;11.70;99.90;;;;;;5090069;28;20032;-64
2022/11/01 02:09:00;;;;;;;20.38;3.70;;;11.80;99.90;;;;;;5091041;28;20028;-64
2022/11/01 02:11:26;;;;;;;20.38;3.47;;;11.70;99.90;;;;;;5091291;28;20024;-64
2022/11/01 02:13:52;;;;;;;19.52;3.65;;;11.70;99.90;;;;;;5091661;28;20371;-65
2022/11/01 02:16:39;;;;;;;21.55;3.42;;;11.70;99.90;;;;;;5090052;28;20409;-64
2022/11/01 02:19:07;;;;;;;27.08;4.25;;;11.40;99.90;;;;;;5091221;28;20032;-64
2022/11/01 02:21:57;;;;;;;16.20;3.60;;;11.50;99.90;;;;;;5091561;28;20067;-64
2022/11/01 02:24:49;;;;;;;23.05;4.72;;;11.50;99.90;;;;;;5094756;28;20023;-63
2022/11/01 02:27:18;;;;;;;14.90;3.47;;;11.30;99.90;;;;;;5094880;28;20024;-64
2022/11/01 02:29:55;;;;;;;19.60;3.50;;;11.10;99.90;;;;;;5095235;28;20027;-64
2022/11/01 02:32:43;;;;;;;17.90;3.60;;;11.10;99.90;;;;;;5094837;28;20502;-64
2022/11/01 02:35:26;;;;;;;24.08;3.85;;;11.20;99.90;;;;;;5094564;28;20482;-63
2022/11/01 02:38:06;;;;;;;17.85;3.50;;;11.30;99.90;;;;;;5094399;28;20028;-64
2022/11/01 02:40:40;;;;;;;25.40;4.63;;;11.10;99.90;;;;;;5094378;28;20042;-64
2022/11/01 02:43:13;;;;;;;19.45;3.50;;;11.00;99.90;;;;;;5094699;28;20063;-64
2022/11/01 02:45:43;;;;;;;17.13;3.97;;;11.00;99.90;;;;;;5094613;28;20059;-63
2022/11/01 02:48:09;;;;;;;12.13;3.03;;;11.00;99.90;;;;;;5094940;28;20028;-64
2022/11/01 02:50:42;;;;;;;19.60;3.53;;;10.90;99.90;;;;;;5094358;28;20032;-64
2022/11/01 02:53:08;;;;;;;18.65;3.85;;;10.70;99.90;;;;;;5093986;28;20027;-64
2022/11/01 02:55:34;;;;;;;17.02;3.67;;;10.90;99.90;;;;;;5094300;28;20020;-64
2022/11/01 02:58:13;;;;;;;18.27;3.17;;;10.70;99.90;;;;;;5094427;28;20046;-63
2022/11/01 03:00:41;;;;;;;17.17;3.28;;;10.60;99.90;;;;;;5094233;28;20017;-64
2022/11/01 03:03:22;;;;;;;20.83;3.70;;;10.70;99.90;;;;;;5094227;28;20020;-64
2022/11/01 03:06:03;;;;;;;19.05;3.58;;;10.70;99.90;;;;;;5093675;28;20428;-64
2022/11/01 03:08:52;;;;;;;21.23;3.65;;;10.40;99.90;;;;;;5094134;28;20024;-64
2022/11/01 03:11:25;;;;;;;17.25;3.50;;;10.10;99.90;;;;;;5094189;28;20036;-64
2022/11/01 03:14:03;;;;;;;17.43;3.23;;;10.30;99.90;;;;;;5094086;28;20019;-63
2022/11/01 03:16:53;;;;;;;22.00;3.60;;;10.30;99.90;;;;;;5094090;28;20051;-64
2022/11/01 03:19:27;;;;;;;20.60;3.55;;;10.30;99.90;;;;;;5093658;28;20405;-63
2022/11/01 03:22:02;;;;;;;20.65;3.80;;;10.40;99.90;;;;;;5093446;28;20578;-64
2022/11/01 03:24:39;;;;;;;15.02;3.28;;;10.50;99.90;;;;;;5093837;28;20020;-63
2022/11/01 03:27:31;;;;;;;20.50;3.40;;;10.40;99.90;;;;;;5093797;28;20025;-64
2022/11/01 03:30:09;;;;;;;15.45;3.47;;;10.40;99.90;;;;;;5093682;28;20497;-63
2022/11/01 03:32:44;;;;;;;15.23;3.40;;;10.40;99.90;;;;;;5093190;28;20394;-63
2022/11/01 03:35:15;;;;;;;17.17;3.03;;;10.20;99.90;;;;;;5092823;28;20051;-64
2022/11/01 03:37:43;;;;;;;18.75;3.55;;;10.20;99.90;;;;;;5093064;28;20024;-64
2022/11/01 03:40:11;;;;;;;23.92;3.95;;;10.30;99.90;;;;;;5093882;28;20031;-64
2022/11/01 03:42:39;;;;;;;16.52;3.58;;;10.40;99.90;;;;;;5093332;28;20594;-63
2022/11/01 03:45:10;;;;;;;16.55;3.22;;;10.10;99.90;;;;;;5093392;28;20030;-64
2022/11/01 03:47:36;;;;;;;19.48;3.40;;;10.00;99.90;;;;;;5093406;28;20039;-64
2022/11/01 03:50:23;;;;;;;15.60;3.45;;;9.90;99.90;;;;;;5093094;28;20024;-63
2022/11/01 03:52:49;;;;;;;15.52;3.17;;;10.00;99.90;;;;;;5093598;28;20204;-63
2022/11/01 03:55:17;;;;;;;16.70;3.90;;;10.00;99.90;;;;;;5093099;28;20077;-63
2022/11/01 03:57:52;;;;;;;15.70;3.35;;;10.00;99.90;;;;;;5093252;28;20024;-64
2022/11/01 04:00:29;;;;;;;15.65;3.10;;;9.80;99.90;;;;;;5093506;28;20052;-63
2022/11/01 04:02:56;;;;;;;20.67;3.33;;;9.90;99.90;;;;;;5093105;28;20020;-64
2022/11/01 04:05:24;;;;;;;18.40;3.15;;;9.90;99.90;;;;;;5092356;28;20024;-64
2022/11/01 04:07:50;;;;;;;19.48;3.53;;;9.80;99.90;;;;;;5093005;28;20025;-64
2022/11/01 04:10:16;;;;;;;19.73;3.42;;;9.70;99.90;;;;;;5092913;28;20425;-63
2022/11/01 04:12:47;;;;;;;14.15;3.10;;;9.80;99.90;;;;;;5093405;28;20482;-64
2022/11/01 04:21:10;;;;;;;14.93;3.47;;;9.40;99.90;;;;;;5093109;28;20112;-64
2022/11/01 04:23:36;;;;;;;16.40;4.13;;;9.30;99.90;;;;;;5093015;28;20032;-63
2022/11/01 04:26:02;;;;;;;15.02;3.55;;;9.50;99.90;;;;;;5092495;28;20052;-63
2022/11/01 04:28:28;;;;;;;11.93;2.90;;;9.50;99.90;;;;;;5092587;28;20058;-63
2022/11/01 04:30:54;;;;;;;14.90;3.00;;;9.50;99.90;;;;;;5092498;28;20051;-63
2022/11/01 04:33:19;;;;;;;16.45;3.38;;;9.40;99.90;;;;;;5091949;28;20513;-64
2022/11/01 04:35:45;;;;;;;17.40;3.63;;;9.30;99.90;;;;;;5092413;28;20032;-63
2022/11/01 04:38:12;;;;;;;17.58;4.18;;;9.40;99.90;;;;;;5092262;28;20548;-64
2022/11/01 04:40:39;;;;;;;39.13;21.75;;;9.60;99.90;;;;;;5092289;28;22126;-64
2022/11/01 04:43:04;;;;;;;15.70;4.13;;;9.60;99.90;;;;;;5092620;28;20036;-63
2022/11/01 04:45:30;;;;;;;14.48;3.75;;;9.30;99.90;;;;;;5091851;28;20490;-63
2022/11/01 04:48:05;;;;;;;17.77;3.80;;;9.40;99.90;;;;;;5091883;28;20482;-63
2022/11/01 04:50:31;;;;;;;22.95;4.70;;;9.30;99.90;;;;;;5092417;28;20043;-64
2022/11/01 04:52:58;;;;;;;18.10;4.40;;;9.50;99.90;;;;;;5092191;28;20022;-64
2022/11/01 04:55:25;;;;;;;20.13;3.70;;;9.50;99.90;;;;;;5091915;28;20028;-64
2022/11/01 04:57:51;;;;;;;26.55;4.35;;;9.40;99.90;;;;;;5092036;28;20111;-64
2022/11/01 05:00:17;;;;;;;19.92;3.80;;;9.20;99.90;;;;;;5092048;28;20157;-63
2022/11/01 05:02:43;;;;;;;14.32;3.40;;;9.10;99.90;;;;;;5091944;28;20473;-64
2022/11/01 05:05:10;;;;;;;26.25;4.80;;;9.10;99.90;;;;;;5092247;28;20028;-63
2022/11/01 05:07:36;;;;;;;20.08;6.82;;;9.40;99.90;;;;;;5091917;28;20520;-64
2022/11/01 05:10:02;;;;;;;45.03;29.95;;;9.50;99.90;;;;;;5091971;28;20020;-64
2022/11/01 05:12:28;;;;;;;48.63;33.58;;;9.30;99.90;;;;;;5092031;28;20027;-64
2022/11/01 05:14:53;;;;;;;27.63;15.15;;;9.30;99.90;;;;;;5091829;28;20024;-64
2022/11/01 05:17:19;;;;;;;30.48;20.55;;;9.30;99.90;;;;;;5091401;28;20028;-64
2022/11/01 05:19:45;;;;;;;24.83;11.90;;;9.50;99.90;;;;;;5091649;28;20390;-63
2022/11/01 05:22:10;;;;;;;27.17;11.38;;;9.50;99.90;;;;;;5092200;28;20093;-63
2022/11/01 05:24:36;;;;;;;23.52;11.45;;;9.40;99.90;;;;;;5091754;28;20103;-63
2022/11/01 05:27:02;;;;;;;20.83;8.40;;;9.20;99.90;;;;;;5091805;28;20032;-64
2022/11/01 05:29:28;;;;;;;21.35;9.27;;;9.30;99.90;;;;;;5091781;28;20024;-64
2022/11/01 05:31:53;;;;;;;20.27;8.07;;;9.30;99.90;;;;;;5091626;28;20541;-63
2022/11/01 05:34:19;;;;;;;23.67;9.52;;;9.20;99.90;;;;;;5091628;28;20386;-63
2022/11/01 05:36:45;;;;;;;24.05;7.75;;;9.20;99.90;;;;;;5091734;28;20042;-63
2022/11/01 05:39:11;;;;;;;25.83;6.45;;;9.20;99.90;;;;;;5091489;28;20032;-64
2022/11/01 05:41:37;;;;;;;19.20;7.20;;;9.20;99.90;;;;;;5091484;28;20052;-64
2022/11/01 05:44:03;;;;;;;22.55;6.30;;;9.30;99.90;;;;;;5091568;28;20505;-64
2022/11/01 05:46:28;;;;;;;17.50;5.38;;;9.30;99.90;;;;;;5091526;28;20012;-64
2022/11/01 05:48:54;;;;;;;21.75;5.20;;;9.30;99.90;;;;;;5091605;28;20028;-63
2022/11/01 05:51:20;;;;;;;15.68;5.05;;;9.60;99.90;;;;;;5091390;28;20119;-64
2022/11/01 05:53:49;;;;;;;19.17;5.22;;;9.70;99.90;;;;;;5091860;28;20035;-64
2022/11/01 05:56:15;;;;;;;17.42;4.70;;;9.50;99.90;;;;;;5091537;28;20030;-63
2022/11/01 05:58:41;;;;;;;25.23;4.75;;;9.40;99.90;;;;;;5095339;28;20200;-64
2022/11/01 06:01:07;;;;;;;15.52;4.20;;;9.40;99.90;;;;;;5094989;28;20024;-64
2022/11/01 06:03:34;;;;;;;19.17;4.25;;;9.50;99.90;;;;;;5095506;28;20028;-63
2022/11/01 06:06:00;;;;;;;15.27;4.03;;;9.70;99.90;;;;;;5095667;28;20036;-64
2022/11/01 06:08:26;;;;;;;20.75;3.80;;;9.70;99.90;;;;;;5095446;28;20490;-63
2022/11/01 06:10:52;;;;;;;21.30;4.45;;;10.10;99.90;;;;;;5095197;28;20031;-63
2022/11/01 06:13:18;;;;;;;16.10;4.63;;;10.10;99.90;;;;;;5095199;28;20031;-63
2022/11/01 06:15:44;;;;;;;21.15;5.70;;;10.00;99.90;;;;;;5095255;28;20024;-63
2022/11/01 06:18:10;;;;;;;26.65;7.70;;;9.90;99.90;;;;;;5094872;28;20521;-64
2022/11/01 06:20:37;;;;;;;20.52;8.10;;;9.70;99.90;;;;;;5094952;28;20146;-63
2022/11/01 06:23:11;;;;;;;25.98;5.97;;;9.70;99.90;;;;;;5095097;28;20534;-63
2022/11/01 06:25:37;;;;;;;15.20;4.63;;;9.60;99.90;;;;;;5094910;28;20105;-64
2022/11/01 06:28:03;;;;;;;13.82;4.13;;;9.70;99.90;;;;;;5094851;28;20104;-64
2022/11/01 06:30:28;;;;;;;21.10;4.88;;;9.70;99.90;;;;;;5094895;28;20024;-63
2022/11/01 06:33:01;;;;;;;15.98;4.25;;;9.70;99.90;;;;;;5094827;28;20017;-63
2022/11/01 06:35:27;;;;;;;24.52;4.55;;;9.90;99.90;;;;;;5094566;28;20371;-63
2022/11/01 06:37:53;;;;;;;14.82;3.83;;;9.90;99.90;;;;;;5094629;28;20031;-64
2022/11/01 06:40:19;;;;;;;23.15;4.97;;;10.00;99.90;;;;;;5094557;28;20062;-62
2022/11/01 06:42:45;;;;;;;24.77;5.10;;;10.20;99.90;;;;;;5094783;28;20059;-63
2022/11/01 06:45:11;;;;;;;14.85;4.10;;;10.30;99.90;;;;;;5094402;28;20024;-63
2022/11/01 06:47:37;;;;;;;23.25;4.80;;;10.40;99.90;;;;;;5094532;28;20558;-63
2022/11/01 06:50:03;;;;;;;19.70;4.20;;;10.30;99.90;;;;;;5094601;28;20107;-64
2022/11/01 06:52:29;;;;;;;18.30;3.83;;;10.20;99.90;;;;;;5094930;28;20031;-64
2022/11/01 06:54:54;;;;;;;17.70;4.32;;;10.30;99.90;;;;;;5094254;28;20020;-64
2022/11/01 06:57:20;;;;;;;17.92;4.20;;;10.40;99.90;;;;;;5094126;28;20545;-63
2022/11/01 06:59:46;;;;;;;18.63;4.00;;;10.60;99.90;;;;;;5093804;28;20062;-63
2022/11/01 07:02:12;;;;;;;20.20;4.28;;;10.80;99.90;;;;;;5094230;28;20024;-64
2022/11/01 07:04:38;;;;;;;18.33;4.18;;;11.00;99.90;;;;;;5094480;28;20501;-64
2022/11/01 07:07:03;;;;;;;20.25;4.20;;;11.20;99.90;;;;;;5093817;28;20025;-64
2022/11/01 07:09:29;;;;;;;15.98;3.47;;;11.40;99.90;;;;;;5093792;28;20025;-64
2022/11/01 07:11:55;;;;;;;14.63;3.63;;;11.40;99.90;;;;;;5094254;28;20085;-63
2022/11/01 07:14:20;;;;;;;17.88;4.30;;;11.40;99.90;;;;;;5093596;28;20047;-64
2022/11/01 07:16:46;;;;;;;18.23;4.25;;;11.40;99.90;;;;;;5092586;28;20031;-63
2022/11/01 07:19:12;;;;;;;17.75;4.13;;;11.50;99.90;;;;;;5093717;28;20036;-64
2022/11/01 07:21:37;;;;;;;21.98;4.65;;;11.50;99.90;;;;;;5093721;28;20032;-63
2022/11/01 07:24:04;;;;;;;23.92;4.97;;;11.60;99.90;;;;;;5093619;28;20030;-64
2022/11/01 07:26:29;;;;;;;20.42;3.75;;;11.60;99.90;;;;;;5094057;28;20028;-63
2022/11/01 07:28:55;;;;;;;23.77;4.95;;;11.60;99.90;;;;;;5093444;28;20031;-64
2022/11/01 07:31:21;;;;;;;17.23;4.13;;;11.60;99.90;;;;;;5093438;28;20032;-64
2022/11/01 07:33:47;;;;;;;17.15;4.15;;;11.70;99.90;;;;;;5093515;28;20027;-63
2022/11/01 07:36:12;;;;;;;19.42;3.97;;;11.70;99.90;;;;;;5093464;28;20024;-64
2022/11/01 07:38:38;;;;;;;27.00;4.93;;;11.70;99.90;;;;;;5093313;28;20035;-63
2022/11/01 07:41:04;;;;;;;16.95;3.53;;;11.80;99.90;;;;;;5093558;28;20086;-63
2022/11/01 07:43:30;;;;;;;16.80;4.20;;;11.80;99.90;;;;;;5093143;28;20049;-64
2022/11/01 07:45:59;;;;;;;18.05;3.40;;;11.80;99.90;;;;;;5093205;28;20035;-63
2022/11/01 07:48:25;;;;;;;19.35;4.25;;;11.90;99.90;;;;;;5093207;28;20020;-63
2022/11/01 07:50:55;;;;;;;17.35;3.92;;;12.00;99.90;;;;;;5093157;28;20102;-64
2022/11/01 07:53:21;;;;;;;16.13;3.80;;;12.10;99.90;;;;;;5093118;28;20378;-63
2022/11/01 07:55:46;;;;;;;19.00;3.92;;;12.30;99.90;;;;;;5091252;28;20031;-64
2022/11/01 07:58:13;;;;;;;20.20;4.28;;;12.70;99.90;;;;;;5093554;28;20405;-63
2022/11/01 08:00:42;;;;;;;12.98;3.55;;;14.00;99.90;;;;;;5093030;28;20026;-64
2022/11/01 08:03:13;;;;;;;15.68;3.60;;;16.20;99.90;;;;;;5093094;28;20035;-64
2022/11/01 08:05:40;;;;;;;11.88;4.20;;;17.40;99.90;;;;;;5093340;28;20119;-64
2022/11/01 08:08:06;;;;;;;19.20;13.85;;;19.20;99.90;;;;;;5092683;28;20020;-64
2022/11/01 08:10:33;;;;;;;17.70;11.65;;;20.50;99.90;;;;;;5091259;28;20445;-64
2022/11/01 08:13:03;;;;;;;17.15;10.02;;;21.00;99.90;;;;;;5092906;28;20030;-64
2022/11/01 08:15:28;;;;;;;23.38;15.07;;;21.40;99.90;;;;;;5092332;28;20081;-64
2022/11/01 08:17:58;;;;;;;20.50;13.63;;;21.80;99.90;;;;;;5092195;28;20386;-64
2022/11/01 08:20:26;;;;;;;12.50;6.13;;;22.30;99.90;;;;;;5091267;28;20475;-64
2022/11/01 08:22:52;;;;;;;13.25;3.83;;;22.00;99.90;;;;;;5091656;28;20031;-64
2022/11/01 08:25:19;;;;;;;8.13;2.80;;;22.10;99.90;;;;;;5091833;28;20493;-63
2022/11/01 08:27:45;;;;;;;8.48;2.70;;;22.40;99.90;;;;;;5091685;28;20040;-63
2022/11/01 08:30:12;;;;;;;8.40;2.40;;;23.20;99.90;;;;;;5091745;28;20035;-63
2022/11/01 08:32:38;;;;;;;8.95;2.65;;;22.50;99.90;;;;;;5091829;28;20051;-64
2022/11/01 08:35:04;;;;;;;11.88;3.05;;;22.80;99.90;;;;;;5091300;28;20478;-64
2022/11/01 08:37:30;;;;;;;11.30;3.83;;;22.80;99.90;;;;;;5091256;28;20584;-63
2022/11/01 08:39:55;;;;;;;17.48;7.30;;;23.50;99.90;;;;;;5091289;28;20054;-63
2022/11/01 08:42:21;;;;;;;23.10;13.75;;;22.80;99.90;;;;;;5091127;28;20452;-64
2022/11/01 08:44:47;;;;;;;14.65;8.77;;;22.60;99.90;;;;;;5091367;28;20020;-64
2022/11/01 08:47:12;;;;;;;15.32;9.25;;;23.70;99.90;;;;;;5091418;28;20031;-64
2022/11/01 08:49:38;;;;;;;13.00;6.53;;;24.20;99.90;;;;;;5091388;28;20070;-64
2022/11/01 08:52:04;;;;;;;13.65;5.13;;;23.10;99.90;;;;;;5091129;28;20044;-64
2022/11/01 08:54:31;;;;;;;14.43;4.50;;;23.80;99.90;;;;;;5090701;28;20036;-64
2022/11/01 08:56:57;;;;;;;11.18;3.45;;;24.30;99.90;;;;;;5092510;28;20024;-64
2022/11/01 08:59:23;;;;;;;9.82;3.38;;;24.00;99.90;;;;;;5091947;28;20042;-63
2022/11/01 09:01:49;;;;;;;9.25;2.75;;;24.50;99.90;;;;;;5092202;28;20076;-63
2022/11/01 09:04:16;;;;;;;7.43;2.95;;;25.00;99.90;;;;;;5092024;28;20036;-64
2022/11/01 09:06:41;;;;;;;9.25;3.05;;;24.50;99.90;;;;;;5091875;28;20023;-63
2022/11/01 09:09:09;;;;;;;8.77;2.80;;;25.40;99.90;;;;;;5090419;28;20386;-64
2022/11/01 09:11:35;;;;;;;11.85;3.33;;;25.80;99.90;;;;;;5091853;28;20016;-63
2022/11/01 09:14:01;;;;;;;10.07;3.10;;;25.80;99.90;;;;;;5091942;28;20028;-63
2022/11/01 09:16:27;;;;;;;11.10;3.38;;;26.20;99.90;;;;;;5092398;28;20438;-63
2022/11/01 09:18:53;;;;;;;9.15;2.97;;;24.70;99.90;;;;;;5091735;28;20123;-66
2022/11/01 09:21:18;;;;;;;10.75;3.28;;;22.80;99.90;;;;;;5091688;28;20103;-66
2022/11/01 09:23:45;;;;;;;10.25;3.30;;;23.10;99.90;;;;;;5091364;28;20093;-63
2022/11/01 09:26:12;;;;;;;13.40;5.47;;;22.40;99.90;;;;;;5091833;28;20028;-64
2022/11/01 09:28:37;;;;;;;14.70;5.43;;;21.40;99.90;;;;;;5091761;28;20032;-63
2022/11/01 09:31:05;;;;;;;13.65;5.97;;;21.80;99.90;;;;;;5093555;28;20107;-64
2022/11/01 09:33:31;;;;;;;13.07;5.30;;;21.10;99.90;;;;;;5095933;28;20042;-63
2022/11/01 09:35:58;;;;;;;13.98;5.35;;;22.10;99.90;;;;;;5095863;28;20385;-63
2022/11/01 09:38:24;;;;;;;14.60;5.28;;;22.10;99.90;;;;;;5095434;28;20093;-63
2022/11/01 09:41:00;;;;;;;16.50;6.32;;;22.00;99.90;;;;;;5095631;28;20563;-64
2022/11/01 09:43:29;;;;;;;11.57;4.70;;;22.80;99.90;;;;;;5095943;28;20024;-63
2022/11/01 09:45:58;;;;;;;14.63;5.05;;;21.60;99.90;;;;;;5095688;28;20111;-64
2022/11/01 09:48:27;;;;;;;14.63;3.60;;;22.00;99.90;;;;;;5095609;28;20032;-63
2022/11/01 09:50:53;;;;;;;12.70;3.60;;;22.00;99.90;;;;;;5095608;28;20016;-63
2022/11/01 09:53:24;;;;;;;15.57;3.50;;;22.50;99.90;;;;;;5095476;28;20054;-63
2022/11/01 09:56:00;;;;;;;16.33;3.58;;;21.80;99.90;;;;;;5095476;28;20024;-63
2022/11/01 09:58:52;;;;;;;14.50;4.05;;;21.60;99.90;;;;;;5095604;28;20028;-63
2022/11/01 10:01:45;;;;;;;10.27;3.20;;;21.60;99.90;;;;;;5095545;28;20112;-63
2022/11/01 10:04:43;;;;;;;13.00;3.30;;;22.60;99.90;;;;;;5095492;28;20028;-64
2022/11/01 10:07:15;;;;;;;14.48;3.60;;;22.70;99.90;;;;;;5095236;28;20024;-63
2022/11/01 10:10:02;;;;;;;9.50;3.10;;;22.50;99.90;;;;;;5095281;28;20055;-63
2022/11/01 10:12:43;;;;;;;10.07;2.97;;;22.20;99.90;;;;;;5095641;28;20040;-63
2022/11/01 10:15:44;;;;;;;11.43;3.58;;;22.10;99.90;;;;;;5095301;28;20032;-63
2022/11/01 10:18:31;;;;;;;15.80;3.38;;;22.10;99.90;;;;;;5092849;28;20052;-64
2022/11/01 10:21:00;;;;;;;9.27;3.05;;;22.10;99.90;;;;;;5092230;28;20153;-63
2022/11/01 10:23:38;;;;;;;13.43;3.40;;;22.10;99.90;;;;;;5092658;28;20173;-63
2022/11/01 10:26:06;;;;;;;12.75;3.63;;;22.30;99.90;;;;;;5092918;28;20504;-64
2022/11/01 10:28:53;;;;;;;14.43;3.65;;;22.20;99.90;;;;;;5092888;28;20058;-63
2022/11/01 10:31:23;;;;;;;14.75;3.45;;;22.30;99.90;;;;;;5092798;28;20020;-63
2022/11/01 10:34:41;;;;;;;13.48;3.55;;;22.30;99.90;;;;;;5092591;28;20177;-64
2022/11/01 10:37:27;;;;;;;17.20;3.67;;;21.90;99.90;;;;;;4992873;28;20042;-64
2022/11/01 10:40:00;;;;;;;17.15;3.90;;;21.30;99.90;;;;;;4992880;28;20521;-63
2022/11/01 10:42:28;;;;;;;15.18;3.08;;;21.50;99.90;;;;;;4992707;28;20046;-63
2022/11/01 10:45:07;;;;;;;14.25;3.67;;;21.40;99.90;;;;;;4992679;28;20042;-64
2022/11/01 10:47:33;;;;;;;14.50;3.60;;;21.40;99.90;;;;;;4993335;28;20114;-64
2022/11/01 10:50:05;;;;;;;13.13;3.78;;;21.30;99.90;;;;;;4992674;28;20037;-63
2022/11/01 10:52:54;;;;;;;14.27;3.47;;;21.40;99.90;;;;;;4992632;28;20046;-63
2022/11/01 10:55:38;;;;;;;15.07;3.45;;;21.30;99.90;;;;;;4989047;28;20038;-64
2022/11/01 10:58:13;;;;;;;;;;;21.20;99.90;;;;;;4993094;28;20077;-64
2022/11/01 11:00:41;;;;;;;13.20;3.47;;;21.40;99.90;;;;;;4992573;28;20355;-64
2022/11/01 11:03:23;;;;;;;18.73;3.80;;;20.90;99.90;;;;;;4992782;28;20031;-64
2022/11/01 11:05:51;;;;;;;15.32;3.63;;;20.60;99.90;;;;;;4992849;28;20489;-63
2022/11/01 11:08:21;;;;;;;14.85;3.22;;;20.60;99.90;;;;;;4992646;28;20035;-64
2022/11/01 11:10:47;;;;;;;12.38;3.25;;;20.20;99.90;;;;;;4992415;28;20092;-64
2022/11/01 11:13:18;;;;;;;17.48;3.63;;;20.30;99.90;;;;;;5062591;28;20051;-64
2022/11/01 11:15:54;;;;;;;19.23;3.63;;;19.90;99.90;;;;;;5074560;28;20082;-64
2022/11/01 11:18:20;;;;;;;16.88;3.58;;;19.80;99.90;;;;;;5073925;28;20040;-64
2022/11/01 11:20:51;;;;;;;13.73;3.45;;;19.60;99.90;;;;;;5087884;28;20127;-64
2022/11/01 11:23:20;;;;;;;15.05;3.17;;;19.40;99.90;;;;;;5094369;28;20028;-64
2022/11/01 11:25:46;;;;;;;17.55;4.00;;;19.20;99.90;;;;;;5093951;28;20028;-64
2022/11/01 11:28:24;;;;;;;14.50;3.50;;;19.10;99.90;;;;;;5093866;28;20378;-64
2022/11/01 11:30:50;;;;;;;17.77;3.65;;;19.10;99.90;;;;;;5094459;28;20032;-64
2022/11/01 11:33:17;;;;;;;14.85;3.10;;;18.90;99.90;;;;;;5093495;28;20107;-64
2022/11/01 11:35:56;;;;;;;15.68;3.50;;;18.90;99.90;;;;;;5095187;28;20020;-64
2022/11/01 11:38:43;;;;;;;15.70;3.70;;;18.90;99.90;;;;;;5094674;28;20024;-64
2022/11/01 11:41:11;;;;;;;16.67;3.88;;;19.10;99.90;;;;;;5094538;28;20073;-64
2022/11/01 11:43:40;;;;;;;16.80;3.42;;;19.10;99.90;;;;;;5093793;28;20097;-64
2022/11/01 11:46:14;;;;;;;14.98;3.53;;;19.30;99.90;;;;;;5093904;28;20371;-64
2022/11/01 11:49:10;;;;;;;15.65;3.67;;;19.70;99.90;;;;;;5092987;28;20166;-64
2022/11/01 11:51:37;;;;;;;16.45;3.97;;;20.00;99.90;;;;;;5093344;28;20050;-64
2022/11/01 11:54:27;;;;;;;16.05;3.42;;;20.50;99.90;;;;;;5093491;28;20055;-64
2022/11/01 11:57:10;;;;;;;15.10;3.72;;;20.80;99.90;;;;;;5093489;28;20024;-64
2022/11/01 11:59:37;;;;;;;17.13;3.65;;;21.50;99.90;;;;;;5095018;28;20391;-64
2022/11/01 12:02:11;;;;;;;12.20;3.30;;;21.40;99.90;;;;;;5093657;28;20024;-64
2022/11/01 12:04:46;;;;;;;15.13;3.08;;;21.20;99.90;;;;;;5093996;28;20066;-64
2022/11/01 12:07:26;;;;;;;9.80;3.17;;;21.00;99.90;;;;;;5093611;28;20031;-64
2022/11/01 12:09:53;;;;;;;14.90;3.03;;;21.10;99.90;;;;;;5093237;28;20025;-64
2022/11/01 12:12:27;;;;;;;15.60;3.40;;;20.80;99.90;;;;;;5093092;28;20031;-64
2022/11/01 12:14:55;;;;;;;11.90;3.00;;;20.60;99.90;;;;;;5093221;28;20367;-64
2022/11/01 12:17:26;;;;;;;12.82;2.88;;;20.50;99.90;;;;;;5092836;28;20032;-64
2022/11/01 12:20:15;;;;;;;12.68;2.83;;;20.40;99.90;;;;;;5093529;28;20119;-64
2022/11/01 12:22:58;;;;;;;10.85;3.20;;;20.20;99.90;;;;;;5093061;28;20024;-64
2022/11/01 12:25:24;;;;;;;11.17;3.20;;;20.20;99.90;;;;;;5092633;28;20020;-63
2022/11/01 12:27:59;;;;;;;13.20;2.80;;;20.50;99.90;;;;;;5093071;28;20032;-64
2022/11/01 12:30:27;;;;;;;11.48;2.72;;;20.60;99.90;;;;;;5092699;28;20485;-64
2022/11/01 12:33:02;;;;;;;11.57;3.00;;;20.90;99.90;;;;;;5092133;28;20029;-64
2022/11/01 12:35:41;;;;;;;10.43;2.90;;;21.00;99.90;;;;;;5093351;28;20051;-64
2022/11/01 12:38:22;;;;;;;13.18;3.28;;;20.80;99.90;;;;;;5092781;28;20460;-64
2022/11/01 12:40:51;;;;;;;12.85;3.35;;;20.70;99.90;;;;;;5092583;28;20189;-64
2022/11/01 12:43:32;;;;;;;11.93;3.15;;;20.10;99.90;;;;;;5092618;28;20402;-64
2022/11/01 12:46:11;;;;;;;14.50;3.25;;;20.20;99.90;;;;;;5091987;28;20144;-64
2022/11/01 12:48:45;;;;;;;12.43;3.45;;;20.20;99.90;;;;;;5092644;28;20051;-63
2022/11/01 12:51:24;;;;;;;13.68;3.60;;;20.10;99.90;;;;;;5092882;28;20038;-64
2022/11/01 12:54:22;;;;;;;13.43;3.60;;;20.10;99.90;;;;;;5092484;28;20036;-64
2022/11/01 12:56:48;;;;;;;16.98;3.70;;;19.70;99.90;;;;;;5092428;28;20055;-64
2022/11/01 12:59:20;;;;;;;14.43;3.72;;;19.70;99.90;;;;;;5092644;28;20068;-64
2022/11/01 13:01:52;;;;;;;15.13;3.10;;;19.90;99.90;;;;;;5092041;28;20016;-64